Kihei, HI (96753)

6:53 AM HST on July 07, 2015 (GMT -1000)
Kihei | | Change Station
CLOSE
Current Station
Personal Weather Station
Location: Kihei, HI
Elevation: 23 ft
Nearby Weather Stations
Active Advisory: High Surf Advisory

Elev 23 ft 20.74 °N, 156.46 °W | Updated 1 minute ago

Scattered Clouds
Scattered Clouds
72.1 °F
Feels Like 74 °F
N
0.0
Wind Variable Wind from NW
Gusts 2.0 mph

Today
High -- | Low -- °F
--% Chance of Precip.
Yesterday
High -- | Low -- °F
Precip. -- in
5:50 AM 7:10 PM
Waning Gibbous, 63% visible
Pressure 30.00 in
Visibility 10.0 miles
Clouds Few 3500 ft
Scattered Clouds 7000 ft
Heat Index 74 °F
Dew Point 64 °F
Humidity 75%
Rainfall 0.00 in
Snow Depth Not available.
UV 0 out of 12
Pollen Not available.
Air Quality Not available.
Flu Activity Not available.
METAR PHOG 071554Z 05009KT 10SM FEW035 SCT070 24/19 A2999 RMK AO2 SLP159 T02440189

More Conditions Fewer Conditions

Pressure 30.00 in
Visibility 10.0 miles
Clouds Few 3500 ft
Scattered Clouds 7000 ft
Heat Index 74 °F
Dew Point 64 °F
Humidity 75%
Rainfall 0.00 in
Snow Depth Not available.
UV 0 out of 12
Pollen Not available.
Air Quality Not available.
Flu Activity Not available.
METAR PHOG 071554Z 05009KT 10SM FEW035 SCT070 24/19 A2999 RMK AO2 SLP159 T02440189

More Conditions Fewer Conditions

10-Day Weather Forecast

×

Almanac

Astronomy

Jul. 07, 2015 Rise Set
Actual Time
Civil Twilight
Nautical Twilight
Astronomical Twilight
Moon
Length of Visible Light
Length of Day
Tomorrow will be .
, % of the Moon is Illuminated

Today's Extremes

State Highs State Lows

Community

WunderPhotos

Upload Photos

1,835,849 photos uploaded!

WunderBlogs® & News

Nearby

Air Quality

  Air Quality AQ Index Pollutant
Not available.

Snow Depth

Station Depth Elevation

Earthquake Activity

City Distance Mag. Time & Date
Minimum magnitude displayed is 2.5.

Coastal Water Temperatures

Place Temperature

Stations

Nearby Weather Stations

Station Location Temp. Windchill Dew Point Humidity Wind Precip. Elev Updated Type
                   
High Surf Advisory
Statement as of 3:40 AM HST on July 07, 2015

... High surf advisory remains in effect until 6 PM HST
Wednesday...

A high surf advisory remains in effect until 6 PM HST Wednesday.

* Surf... along south facing shores... 7 to 10 feet through tonight.

* Timing... through tonight.

* Impacts... moderate... expect strong breaking waves... shore
break... and strong longshore and rip currents making swimming
difficult and dangerous.

Precautionary/preparedness actions...

Beachgoers... swimmers... and surfers should heed all advice given
by ocean safety officials and exercise caution.